Time;durP1;ratioP1;P1;durP2;ratioP2;P2;SDS_P1;SDS_P2;PMS_P1;PMS_P2;Temp;Humidity;BMP_temperature;BMP_pressure;BME280_temperature;BME280_humidity;BME280_pressure;Samples;Min_cycle;Max_cycle;Signal;HPM_P1;HPM_P2
2022/02/07 00:02:01;;;;;;;83.30;59.22;;;;;;;;;;143734;577;47018;-86
2022/02/07 00:04:47;;;;;;;;;;;;;;;;;;;;;
2022/02/07 00:07:17;;;;;;;65.25;45.78;;;;;;;;;;143735;625;46020;-86
2022/02/07 00:09:44;;;;;;;53.70;36.78;;;;;;;;;;143732;577;46029;-85
2022/02/07 00:12:13;;;;;;;48.30;36.05;;;;;;;;;;143734;592;46010;-85
2022/02/07 00:14:40;;;;;;;54.70;37.53;;;;;;;;;;143732;618;46023;-86
2022/02/07 00:17:07;;;;;;;50.25;38.65;;;;;;;;;;143734;595;47010;-87
2022/02/07 00:19:41;;;;;;;59.88;41.37;;;;;;;;;;143731;618;47021;-85
2022/02/07 00:22:08;;;;;;;60.88;42.13;;;;;;;;;;143735;622;46010;-86
2022/02/07 00:24:36;;;;;;;54.95;38.88;;;;;;;;;;143732;625;46020;-86
2022/02/07 00:27:03;;;;;;;57.65;40.30;;;;;;;;;;143731;628;46011;-86
2022/02/07 00:29:29;;;;;;;59.75;39.63;;;;;;;;;;143734;566;46020;-87
2022/02/07 00:31:56;;;;;;;49.78;36.60;;;;;;;;;;143735;577;46010;-86
2022/02/07 00:34:23;;;;;;;61.83;43.50;;;;;;;;;;143732;565;47022;-86
2022/02/07 00:36:50;;;;;;;58.87;42.62;;;;;;;;;;143732;627;46010;-85
2022/02/07 00:39:25;;;;;;;61.37;43.25;;;;;;;;;;143733;569;47020;-85
2022/02/07 00:42:00;;;;;;;65.75;46.40;;;;;;;;;;143735;575;46018;-85
2022/02/07 00:44:27;;;;;;;69.55;50.10;;;;;;;;;;143731;565;47022;-86
2022/02/07 00:46:58;;;;;;;65.85;46.55;;;;;;;;;;143732;573;46010;-85
2022/02/07 00:49:26;;;;;;;64.20;44.42;;;;;;;;;;143733;569;46021;-86
2022/02/07 00:51:53;;;;;;;64.50;41.50;;;;;;;;;;143735;616;46010;-85
2022/02/07 00:54:19;;;;;;;57.92;41.35;;;;;;;;;;143736;651;46022;-86
2022/02/07 00:56:46;;;;;;;59.00;41.13;;;;;;;;;;143734;591;46045;-86
2022/02/07 00:59:14;;;;;;;53.70;39.13;;;;;;;;;;143735;571;46020;-86
2022/02/07 01:01:41;;;;;;;53.38;36.67;;;;;;;;;;143735;624;46010;-85
2022/02/07 01:04:07;;;;;;;55.67;38.13;;;;;;;;;;143732;588;46022;-85
2022/02/07 01:06:35;;;;;;;52.67;38.65;;;;;;;;;;143732;583;46020;-87
2022/02/07 01:09:15;;;;;;;56.58;41.47;;;;;;;;;;143731;566;47020;-86
2022/02/07 01:12:02;;;;;;;54.58;38.95;;;;;;;;;;143733;566;46021;-86
2022/02/07 01:14:53;;;;;;;47.88;33.95;;;;;;;;;;143734;564;46012;-85
2022/02/07 01:23:16;;;;;;;47.70;33.95;;;;;;;;;;143735;613;46018;-85
2022/02/07 01:48:28;;;;;;;40.17;29.40;;;;;;;;;;143733;634;46015;-85
2022/02/07 01:51:09;;;;;;;40.78;29.20;;;;;;;;;;143730;644;46012;-85
2022/02/07 01:54:06;;;;;;;35.55;21.95;;;;;;;;;;143732;641;46020;-85
2022/02/07 01:56:30;;;;;;;29.08;20.75;;;;;;;;;;143737;574;46013;-86
2022/02/07 01:58:56;;;;;;;26.55;18.92;;;;;;;;;;143732;623;46022;-86
2022/02/07 02:01:24;;;;;;;24.75;17.77;;;;;;;;;;143732;569;46010;-85
2022/02/07 02:03:52;;;;;;;22.27;15.15;;;;;;;;;;143733;588;46021;-85
2022/02/07 02:06:19;;;;;;;20.00;14.13;;;;;;;;;;143735;574;46020;-86
2022/02/07 02:08:46;;;;;;;18.62;13.95;;;;;;;;;;143731;580;47022;-85
2022/02/07 02:11:13;;;;;;;22.15;13.65;;;;;;;;;;143731;647;46021;-85
2022/02/07 02:14:06;;;;;;;24.02;14.02;;;;;;;;;;143735;569;46012;-84
2022/02/07 02:17:07;;;;;;;23.45;15.68;;;;;;;;;;143736;585;46020;-86
2022/02/07 02:36:21;;;;;;;39.20;28.10;;;;;;;;;;143733;616;46020;-85
2022/02/07 02:47:23;;;;;;;42.72;29.23;;;;;;;;;;143735;592;46020;-84
2022/02/07 02:50:03;;;;;;;43.97;31.40;;;;;;;;;;143734;569;46010;-86
2022/02/07 02:52:33;;;;;;;43.60;28.98;;;;;;;;;;143734;606;46022;-85
2022/02/07 02:55:00;;;;;;;43.60;29.52;;;;;;;;;;143730;614;46012;-85
2022/02/07 02:57:27;;;;;;;45.85;29.08;;;;;;;;;;143732;651;46021;-85
2022/02/07 02:59:53;;;;;;;44.35;30.10;;;;;;;;;;143733;640;46018;-85
2022/02/07 03:02:23;;;;;;;38.58;28.48;;;;;;;;;;143734;622;46013;-84
2022/02/07 03:04:50;;;;;;;43.55;30.55;;;;;;;;;;143734;576;46020;-84
2022/02/07 03:07:17;;;;;;;43.20;30.42;;;;;;;;;;143735;569;46012;-85
2022/02/07 03:09:49;;;;;;;43.55;28.75;;;;;;;;;;143735;594;46044;-85
2022/02/07 03:12:17;;;;;;;46.58;30.40;;;;;;;;;;143732;594;46023;-85
2022/02/07 03:14:48;;;;;;;44.75;31.25;;;;;;;;;;143732;572;46010;-86
2022/02/07 03:17:15;;;;;;;44.72;31.65;;;;;;;;;;143732;570;46021;-85
2022/02/07 03:19:44;;;;;;;52.22;35.58;;;;;;;;;;143734;657;46010;-83
2022/02/07 03:22:10;;;;;;;47.67;33.22;;;;;;;;;;143733;620;46022;-85
2022/02/07 03:24:37;;;;;;;53.83;34.05;;;;;;;;;;143731;578;46011;-85
2022/02/07 03:27:05;;;;;;;61.97;40.03;;;;;;;;;;143732;602;47020;-85
2022/02/07 03:29:32;;;;;;;37.72;28.45;;;;;;;;;;143734;592;46010;-85
2022/02/07 03:31:58;;;;;;;42.80;28.73;;;;;;;;;;143732;580;46021;-84
2022/02/07 03:34:25;;;;;;;35.47;27.17;;;;;;;;;;143731;564;46013;-85
2022/02/07 03:36:55;;;;;;;42.22;27.98;;;;;;;;;;143733;601;46020;-85
2022/02/07 03:39:24;;;;;;;50.00;33.75;;;;;;;;;;143732;660;47010;-86
2022/02/07 03:41:51;;;;;;;45.28;30.12;;;;;;;;;;143732;572;46012;-85
2022/02/07 03:44:18;;;;;;;43.53;29.37;;;;;;;;;;143733;670;46010;-85
2022/02/07 03:46:45;;;;;;;39.67;29.27;;;;;;;;;;143733;616;46020;-86
2022/02/07 03:49:12;;;;;;;40.10;28.98;;;;;;;;;;143734;636;46010;-85
2022/02/07 03:51:46;;;;;;;50.70;32.30;;;;;;;;;;143731;585;46022;-85
2022/02/07 03:54:13;;;;;;;44.45;29.77;;;;;;;;;;143734;575;46010;-86
2022/02/07 03:56:40;;;;;;;41.80;31.85;;;;;;;;;;143733;629;46021;-85
2022/02/07 03:59:08;;;;;;;46.75;30.37;;;;;;;;;;143735;584;46010;-85
2022/02/07 04:01:45;;;;;;;49.35;31.77;;;;;;;;;;143732;671;46022;-87
2022/02/07 04:04:13;;;;;;;50.47;35.15;;;;;;;;;;143732;628;46917;-85
2022/02/07 04:06:41;;;;;;;44.17;31.10;;;;;;;;;;143733;598;46020;-84
2022/02/07 04:09:10;;;;;;;47.30;31.40;;;;;;;;;;143735;625;46019;-85
2022/02/07 04:11:43;;;;;;;44.25;31.65;;;;;;;;;;143732;658;47023;-85
2022/02/07 04:14:18;;;;;;;44.28;30.75;;;;;;;;;;143734;581;46010;-85
2022/02/07 04:16:45;;;;;;;38.78;27.20;;;;;;;;;;143733;621;46021;-86
2022/02/07 04:19:20;;;;;;;34.53;26.80;;;;;;;;;;143733;656;46020;-85
2022/02/07 04:21:50;;;;;;;36.45;27.23;;;;;;;;;;143732;606;46022;-85
2022/02/07 04:24:18;;;;;;;32.20;25.70;;;;;;;;;;143734;575;46021;-85
2022/02/07 04:26:46;;;;;;;34.15;25.65;;;;;;;;;;143733;569;46020;-84
2022/02/07 04:29:14;;;;;;;32.22;25.65;;;;;;;;;;143733;632;46010;-87
2022/02/07 04:31:40;;;;;;;39.80;26.83;;;;;;;;;;143732;565;46022;-85
2022/02/07 04:34:07;;;;;;;34.55;25.90;;;;;;;;;;143732;565;46020;-85
2022/02/07 04:36:34;;;;;;;33.17;25.60;;;;;;;;;;143733;606;46020;-84
2022/02/07 04:39:03;;;;;;;35.83;26.20;;;;;;;;;;143736;587;46041;-85
2022/02/07 04:41:31;;;;;;;35.75;24.92;;;;;;;;;;143730;588;47023;-85
2022/02/07 04:44:02;;;;;;;39.03;25.75;;;;;;;;;;143733;576;46010;-84
2022/02/07 04:55:13;;;;;;;38.97;23.80;;;;;;;;;;143735;564;46010;-84
2022/02/07 04:57:48;;;;;;;29.30;22.98;;;;;;;;;;143735;581;46020;-86
2022/02/07 05:03:11;;;;;;;30.20;22.10;;;;;;;;;;143733;614;46012;-85
2022/02/07 05:14:02;;;;;;;61.97;26.70;;;;;;;;;;143736;654;46020;-83
2022/02/07 05:16:30;;;;;;;32.05;24.05;;;;;;;;;;143734;613;46021;-85
2022/02/07 05:19:01;;;;;;;32.97;24.98;;;;;;;;;;143735;586;46020;-85
2022/02/07 05:21:28;;;;;;;29.50;23.87;;;;;;;;;;143738;571;46020;-84
2022/02/07 05:23:55;;;;;;;34.67;23.10;;;;;;;;;;143732;599;47022;-84
2022/02/07 05:26:23;;;;;;;36.05;25.40;;;;;;;;;;143731;564;46010;-86
2022/02/07 05:28:51;;;;;;;33.35;26.67;;;;;;;;;;143733;575;46020;-84
2022/02/07 05:31:22;;;;;;;36.20;25.67;;;;;;;;;;143734;586;46013;-85
2022/02/07 05:33:49;;;;;;;31.60;24.42;;;;;;;;;;143732;604;46023;-85
2022/02/07 05:36:17;;;;;;;38.88;24.70;;;;;;;;;;143734;569;46010;-84
2022/02/07 05:38:51;;;;;;;38.33;27.58;;;;;;;;;;143736;579;46020;-84
2022/02/07 05:41:19;;;;;;;37.88;29.17;;;;;;;;;;143733;564;46018;-82
2022/02/07 05:43:51;;;;;;;51.97;32.95;;;;;;;;;;143735;667;46022;-83
2022/02/07 05:46:27;;;;;;;83.07;56.72;;;;;;;;;;143735;567;46021;-83
2022/02/07 05:48:53;;;;;;;44.10;32.78;;;;;;;;;;143737;573;46012;-83
2022/02/07 05:51:20;;;;;;;50.90;34.63;;;;;;;;;;143736;577;46010;-83
2022/02/07 05:53:47;;;;;;;44.70;29.63;;;;;;;;;;143734;616;46021;-84
2022/02/07 05:56:17;;;;;;;39.22;29.63;;;;;;;;;;143731;621;47010;-84
2022/02/07 05:58:44;;;;;;;41.70;31.85;;;;;;;;;;143734;582;46020;-84
2022/02/07 06:01:10;;;;;;;39.20;28.12;;;;;;;;;;143735;586;46021;-83
2022/02/07 06:03:37;;;;;;;36.40;27.75;;;;;;;;;;143734;566;46023;-83
2022/02/07 06:06:07;;;;;;;40.55;32.28;;;;;;;;;;143733;646;46010;-83
2022/02/07 06:08:36;;;;;;;52.17;34.35;;;;;;;;;;143735;567;46021;-84
2022/02/07 06:11:06;;;;;;;44.20;33.35;;;;;;;;;;143735;592;46010;-82
2022/02/07 06:13:35;;;;;;;48.90;36.33;;;;;;;;;;143732;640;47022;-83
2022/02/07 06:16:02;;;;;;;46.58;36.58;;;;;;;;;;143734;607;46010;-84
2022/02/07 06:18:30;;;;;;;58.75;36.08;;;;;;;;;;143734;593;46020;-83
2022/02/07 06:21:02;;;;;;;60.12;42.55;;;;;;;;;;143735;607;46010;-81
2022/02/07 06:23:28;;;;;;;67.82;51.33;;;;;;;;;;143733;567;47020;-81
2022/02/07 06:25:56;;;;;;;81.95;60.38;;;;;;;;;;143733;648;46012;-82
2022/02/07 06:28:23;;;;;;;84.32;65.72;;;;;;;;;;143735;618;46020;-82
2022/02/07 06:30:49;;;;;;;86.82;57.17;;;;;;;;;;143734;590;46013;-83
2022/02/07 06:33:16;;;;;;;72.82;56.22;;;;;;;;;;143736;622;46048;-83
2022/02/07 06:35:42;;;;;;;60.45;47.40;;;;;;;;;;143731;626;46915;-83
2022/02/07 06:38:09;;;;;;;55.58;40.25;;;;;;;;;;143734;576;46020;-82
2022/02/07 06:40:36;;;;;;;53.30;41.75;;;;;;;;;;143736;593;46010;-83
2022/02/07 06:43:03;;;;;;;54.92;43.03;;;;;;;;;;143731;576;47020;-83
2022/02/07 06:45:31;;;;;;;54.53;41.25;;;;;;;;;;143734;644;46010;-83
2022/02/07 06:48:00;;;;;;;58.50;42.10;;;;;;;;;;143735;643;46021;-83
2022/02/07 06:50:27;;;;;;;55.15;41.83;;;;;;;;;;143739;584;46010;-82
2022/02/07 06:52:54;;;;;;;51.95;39.42;;;;;;;;;;143733;632;47022;-83
2022/02/07 06:55:21;;;;;;;47.72;39.83;;;;;;;;;;143734;635;46021;-83
2022/02/07 06:57:48;;;;;;;49.80;36.20;;;;;;;;;;143733;628;47020;-83
2022/02/07 07:00:15;;;;;;;42.28;33.63;;;;;;;;;;143736;586;46011;-83
2022/02/07 07:02:43;;;;;;;50.80;40.50;;;;;;;;;;143732;601;47023;-83
2022/02/07 07:05:14;;;;;;;58.25;43.25;;;;;;;;;;143733;592;46020;-83
2022/02/07 07:07:41;;;;;;;67.05;41.58;;;;;;;;;;143734;592;46045;-83
2022/02/07 07:10:09;;;;;;;62.05;45.20;;;;;;;;;;143738;616;46010;-81
2022/02/07 07:12:36;;;;;;;51.45;39.88;;;;;;;;;;143733;581;47020;-83
2022/02/07 07:15:12;;;;;;;54.17;42.78;;;;;;;;;;143734;574;46010;-83
2022/02/07 07:17:41;;;;;;;52.92;40.17;;;;;;;;;;143734;592;46012;-84
2022/02/07 07:20:11;;;;;;;62.00;45.12;;;;;;;;;;143737;576;46044;-82
2022/02/07 07:22:38;;;;;;;59.58;46.40;;;;;;;;;;143734;573;46022;-82
2022/02/07 07:25:06;;;;;;;51.78;39.65;;;;;;;;;;143732;587;46021;-83
2022/02/07 07:27:43;;;;;;;57.60;40.70;;;;;;;;;;143735;567;46012;-82
2022/02/07 07:30:12;;;;;;;60.20;48.08;;;;;;;;;;143737;570;46019;-82
2022/02/07 07:32:39;;;;;;;64.70;47.00;;;;;;;;;;143735;740;46023;-82
2022/02/07 07:35:06;;;;;;;59.22;44.03;;;;;;;;;;143734;700;46010;-83
2022/02/07 07:37:34;;;;;;;48.97;40.28;;;;;;;;;;143734;573;46020;-83
2022/02/07 07:40:01;;;;;;;51.20;41.05;;;;;;;;;;143737;604;46018;-83
2022/02/07 07:42:28;;;;;;;56.03;44.05;;;;;;;;;;143734;582;47022;-83
2022/02/07 07:44:56;;;;;;;56.25;43.58;;;;;;;;;;143733;722;46010;-82
2022/02/07 07:47:28;;;;;;;52.13;42.38;;;;;;;;;;143737;601;46021;-83
2022/02/07 07:50:12;;;;;;;66.85;51.75;;;;;;;;;;143737;618;46010;-83
2022/02/07 08:01:25;;;;;;;56.47;41.95;;;;;;;;;;143738;579;46021;-82
2022/02/07 08:03:54;;;;;;;61.83;43.30;;;;;;;;;;143735;612;46043;-82
2022/02/07 08:06:28;;;;;;;50.95;39.00;;;;;;;;;;143732;564;46012;-82
2022/02/07 08:11:53;;;;;;;44.08;30.83;;;;;;;;;;143737;571;47018;-83
2022/02/07 08:14:20;;;;;;;53.50;38.30;;;;;;;;;;143734;572;46022;-83
2022/02/07 08:16:52;;;;;;;44.63;33.75;;;;;;;;;;143733;573;46021;-83
2022/02/07 08:19:18;;;;;;;46.92;36.25;;;;;;;;;;143734;658;46022;-83
2022/02/07 08:21:45;;;;;;;48.05;38.33;;;;;;;;;;143736;579;46012;-82
2022/02/07 08:24:11;;;;;;;56.03;38.40;;;;;;;;;;143735;576;46012;-84
2022/02/07 08:26:41;;;;;;;43.80;34.65;;;;;;;;;;143732;581;46012;-82
2022/02/07 08:29:09;;;;;;;48.30;34.80;;;;;;;;;;143735;644;46020;-83
2022/02/07 08:31:36;;;;;;;45.35;31.12;;;;;;;;;;143737;578;46018;-83
2022/02/07 08:34:02;;;;;;;42.58;27.35;;;;;;;;;;143735;583;46022;-82
2022/02/07 08:36:29;;;;;;;33.83;24.00;;;;;;;;;;143733;610;46915;-83
2022/02/07 08:38:56;;;;;;;33.33;24.40;;;;;;;;;;143734;613;46013;-82
2022/02/07 08:41:23;;;;;;;36.15;25.10;;;;;;;;;;143740;569;46020;-81
2022/02/07 08:43:54;;;;;;;36.97;25.40;;;;;;;;;;143734;585;47020;-82
2022/02/07 08:46:21;;;;;;;31.17;21.50;;;;;;;;;;143735;612;47021;-82
2022/02/07 08:48:48;;;;;;;31.02;22.90;;;;;;;;;;143736;629;46020;-82
2022/02/07 08:51:16;;;;;;;38.95;25.55;;;;;;;;;;143736;613;46010;-83
2022/02/07 08:53:45;;;;;;;34.42;24.00;;;;;;;;;;143733;581;47022;-82
2022/02/07 08:56:16;;;;;;;48.40;25.05;;;;;;;;;;143733;587;46020;-83
2022/02/07 08:58:45;;;;;;;27.52;21.08;;;;;;;;;;143735;633;46020;-83
2022/02/07 09:01:25;;;;;;;26.58;19.80;;;;;;;;;;143736;572;46021;-82
2022/02/07 09:06:38;;;;;;;30.73;20.67;;;;;;;;;;143732;641;47020;-83
2022/02/07 09:09:15;;;;;;;33.63;23.20;;;;;;;;;;143735;602;46021;-83
2022/02/07 09:11:42;;;;;;;33.95;18.95;;;;;;;;;;143736;586;46020;-83
2022/02/07 09:14:12;;;;;;;33.63;18.75;;;;;;;;;;143735;586;47022;-83
2022/02/07 09:16:58;;;;;;;28.17;16.70;;;;;;;;;;143737;638;45918;-83
2022/02/07 09:19:25;;;;;;;21.45;10.43;;;;;;;;;;143738;609;46020;-82
2022/02/07 09:21:53;;;;;;;18.52;7.45;;;;;;;;;;143736;624;46010;-83
2022/02/07 09:24:23;;;;;;;13.25;7.20;;;;;;;;;;143734;633;47023;-83
2022/02/07 09:26:50;;;;;;;14.82;6.18;;;;;;;;;;143737;652;46010;-83
2022/02/07 09:29:17;;;;;;;14.68;5.10;;;;;;;;;;143736;656;47020;-83
2022/02/07 09:31:44;;;;;;;12.18;6.07;;;;;;;;;;143736;569;46018;-83
2022/02/07 09:34:11;;;;;;;11.50;5.28;;;;;;;;;;143732;618;47020;-83
2022/02/07 09:36:38;;;;;;;12.52;4.78;;;;;;;;;;143733;566;46917;-83
2022/02/07 09:39:05;;;;;;;10.68;3.83;;;;;;;;;;143732;615;47021;-83
2022/02/07 09:41:33;;;;;;;10.20;4.30;;;;;;;;;;143736;752;46018;-82
2022/02/07 09:44:02;;;;;;;11.38;5.43;;;;;;;;;;143733;587;47020;-82
2022/02/07 09:46:47;;;;;;;14.95;4.95;;;;;;;;;;143732;574;47010;-82
2022/02/07 09:49:18;;;;;;;8.48;3.35;;;;;;;;;;143733;573;47028;-82
2022/02/07 09:51:48;;;;;;;11.60;3.72;;;;;;;;;;143734;624;46020;-83
2022/02/07 09:54:22;;;;;;;17.05;3.90;;;;;;;;;;143731;653;47021;-83
2022/02/07 09:56:52;;;;;;;8.65;3.80;;;;;;;;;;143735;607;46012;-83
2022/02/07 09:59:26;;;;;;;8.27;4.93;;;;;;;;;;143734;620;46020;-83
2022/02/07 10:01:56;;;;;;;13.10;4.12;;;;;;;;;;143735;640;46010;-83
2022/02/07 10:04:34;;;;;;;11.80;4.18;;;;;;;;;;143734;595;46022;-83
2022/02/07 10:07:30;;;;;;;10.18;3.20;;;;;;;;;;143734;641;46020;-83
2022/02/07 10:13:13;;;;;;;17.30;5.35;;;;;;;;;;143736;610;47018;-83
2022/02/07 10:15:50;;;;;;;19.45;5.75;;;;;;;;;;143734;599;46045;-83
2022/02/07 10:18:35;;;;;;;7.20;4.68;;;;;;;;;;143734;582;46010;-83
2022/02/07 10:21:30;;;;;;;7.72;4.30;;;;;;;;;;143737;593;46020;-81
2022/02/07 10:35:48;;;;;;;13.75;3.72;;;;;;;;;;143736;598;46020;-82
2022/02/07 10:38:10;;;;;;;13.62;4.68;;;;;;;;;;143737;617;46024;-83
2022/02/07 10:40:53;;;;;;;10.30;4.78;;;;;;;;;;143735;570;46010;-81
2022/02/07 10:43:45;;;;;;;19.30;5.62;;;;;;;;;;143734;627;46020;-82
2022/02/07 10:46:15;;;;;;;12.45;6.15;;;;;;;;;;143737;612;46021;-81
2022/02/07 10:48:53;;;;;;;18.05;5.75;;;;;;;;;;143734;572;46022;-81
2022/02/07 10:51:22;;;;;;;18.58;8.77;;;;;;;;;;143733;609;47010;-81
2022/02/07 10:53:52;;;;;;;16.95;7.47;;;;;;;;;;143735;587;46021;-81
2022/02/07 10:56:45;;;;;;;12.93;6.28;;;;;;;;;;143736;575;47020;-80
2022/02/07 10:59:20;;;;;;;14.83;6.20;;;;;;;;;;143734;611;46022;-80
2022/02/07 11:04:48;;;;;;;17.52;7.05;;;;;;;;;;143739;616;45022;-81
2022/02/07 11:07:17;;;;;;;13.30;6.40;;;;;;;;;;143734;624;46018;-80
2022/02/07 11:10:01;;;;;;;14.80;6.20;;;;;;;;;;143732;566;47023;-81
2022/02/07 11:15:28;;;;;;;16.45;8.30;;;;;;;;;;143734;565;47021;-80
2022/02/07 11:18:27;;;;;;;14.55;9.80;;;;;;;;;;143734;581;46010;-80
2022/02/07 11:21:15;;;;;;;16.25;8.57;;;;;;;;;;143731;604;47020;-81
2022/02/07 11:27:52;;;;;;;21.25;10.02;;;;;;;;;;143731;585;46020;-82
2022/02/07 11:30:39;;;;;;;11.82;8.50;;;;;;;;;;143735;718;46010;-81
2022/02/07 11:33:27;;;;;;;17.58;9.35;;;;;;;;;;143732;579;47020;-81
2022/02/07 11:35:54;;;;;;;17.23;8.68;;;;;;;;;;143733;613;46020;-81
2022/02/07 11:38:21;;;;;;;18.30;10.23;;;;;;;;;;143733;603;46021;-81
2022/02/07 11:41:17;;;;;;;16.12;7.40;;;;;;;;;;143733;609;46020;-81
2022/02/07 11:43:43;;;;;;;13.77;5.45;;;;;;;;;;143732;624;47024;-82
2022/02/07 11:46:14;;;;;;;13.65;4.00;;;;;;;;;;143733;712;46020;-82
2022/02/07 11:48:57;;;;;;;13.50;5.05;;;;;;;;;;143736;687;46020;-81
2022/02/07 11:51:34;;;;;;;11.65;3.90;;;;;;;;;;143737;569;46020;-83
2022/02/07 11:54:12;;;;;;;13.18;5.25;;;;;;;;;;143731;565;47023;-83
2022/02/07 11:56:46;;;;;;;8.52;3.08;;;;;;;;;;143733;612;46020;-79
2022/02/07 11:59:23;;;;;;;17.45;4.70;;;;;;;;;;143736;570;46013;-80
2022/02/07 12:02:00;;;;;;;9.43;4.12;;;;;;;;;;143733;619;47020;-81
2022/02/07 12:04:34;;;;;;;12.50;3.83;;;;;;;;;;143734;622;46020;-81
2022/02/07 12:07:37;;;;;;;9.35;3.65;;;;;;;;;;143731;616;46918;-81
2022/02/07 12:13:41;;;;;;;11.68;4.60;;;;;;;;;;143735;614;46020;-81
2022/02/07 12:16:21;;;;;;;7.20;3.05;;;;;;;;;;143732;583;46025;-81
2022/02/07 12:19:10;;;;;;;14.90;2.95;;;;;;;;;;143732;591;46020;-81
2022/02/07 12:21:39;;;;;;;10.18;3.25;;;;;;;;;;143735;628;46021;-79
2022/02/07 12:24:06;;;;;;;10.27;3.17;;;;;;;;;;143734;615;46020;-81
2022/02/07 12:26:37;;;;;;;7.57;2.50;;;;;;;;;;143733;577;46022;-79
2022/02/07 12:29:14;;;;;;;5.43;2.80;;;;;;;;;;143731;611;46021;-81
2022/02/07 12:31:41;;;;;;;12.02;3.05;;;;;;;;;;143736;573;45033;-80
2022/02/07 12:34:13;;;;;;;8.27;3.90;;;;;;;;;;143736;585;46018;-79
2022/02/07 12:36:52;;;;;;;11.27;3.78;;;;;;;;;;143732;583;47022;-81
2022/02/07 12:39:18;;;;;;;13.68;3.92;;;;;;;;;;143734;585;46010;-80
2022/02/07 12:41:46;;;;;;;8.30;3.60;;;;;;;;;;143733;597;46020;-81
2022/02/07 12:44:22;;;;;;;7.93;3.80;;;;;;;;;;143734;590;46019;-80
2022/02/07 12:46:57;;;;;;;5.43;3.05;;;;;;;;;;143734;581;46022;-79
2022/02/07 12:49:24;;;;;;;10.85;2.80;;;;;;;;;;143734;608;46031;-81
2022/02/07 12:51:51;;;;;;;5.45;2.90;;;;;;;;;;143731;581;46021;-81
2022/02/07 12:54:21;;;;;;;7.00;3.55;;;;;;;;;;143733;565;46012;-80
2022/02/07 12:56:50;;;;;;;6.07;3.03;;;;;;;;;;143731;569;46022;-81
2022/02/07 12:59:19;;;;;;;8.95;3.87;;;;;;;;;;143731;616;46010;-80
2022/02/07 13:02:25;;;;;;;8.38;3.10;;;;;;;;;;143733;571;46020;-80
2022/02/07 13:04:55;;;;;;;7.50;4.22;;;;;;;;;;143736;571;46020;-80
2022/02/07 13:07:45;;;;;;;6.60;3.75;;;;;;;;;;143730;569;46912;-80
2022/02/07 13:11:22;;;;;;;11.43;3.08;;;;;;;;;;143733;588;46010;-81
2022/02/07 13:14:36;;;;;;;;;;;;;;;;;;;;;
2022/02/07 13:17:25;;;;;;;11.63;4.07;;;;;;;;;;143736;577;46010;-80
2022/02/07 13:20:05;;;;;;;8.30;3.25;;;;;;;;;;143731;575;46022;-80
2022/02/07 13:23:18;;;;;;;9.18;3.92;;;;;;;;;;143729;585;46021;-80
2022/02/07 13:27:33;;;;;;;;;;;;;;;;;;;;;
2022/02/07 13:30:44;;;;;;;11.52;3.95;;;;;;;;;;143736;569;46010;-81
2022/02/07 13:33:13;;;;;;;7.22;4.95;;;;;;;;;;143731;584;46014;-81
2022/02/07 13:35:45;;;;;;;11.68;4.70;;;;;;;;;;143732;625;46011;-80
2022/02/07 13:38:17;;;;;;;4.97;3.15;;;;;;;;;;143734;564;46020;-80
2022/02/07 13:41:15;;;;;;;14.13;4.55;;;;;;;;;;143733;566;47020;-80
2022/02/07 13:43:43;;;;;;;9.02;4.00;;;;;;;;;;143736;591;45051;-80
2022/02/07 13:46:11;;;;;;;7.93;3.75;;;;;;;;;;143733;564;46020;-82
2022/02/07 13:48:46;;;;;;;9.20;2.83;;;;;;;;;;143732;570;46020;-80
2022/02/07 13:51:16;;;;;;;8.07;3.60;;;;;;;;;;143737;629;45029;-81
2022/02/07 13:53:44;;;;;;;10.00;3.35;;;;;;;;;;143731;592;47022;-80
2022/02/07 13:56:13;;;;;;;8.90;3.60;;;;;;;;;;143733;566;46020;-80
2022/02/07 13:58:41;;;;;;;7.85;3.70;;;;;;;;;;143732;585;46021;-81
2022/02/07 14:01:21;;;;;;;8.98;2.95;;;;;;;;;;143735;614;46018;-82
2022/02/07 14:03:49;;;;;;;9.60;3.22;;;;;;;;;;143733;572;46022;-80
2022/02/07 14:06:22;;;;;;;7.55;3.20;;;;;;;;;;143735;578;45577;-79
2022/02/07 14:08:53;;;;;;;8.23;3.77;;;;;;;;;;143732;580;46020;-81
2022/02/07 14:11:30;;;;;;;10.70;3.62;;;;;;;;;;143734;587;46018;-80
2022/02/07 14:14:05;;;;;;;10.10;4.18;;;;;;;;;;143734;583;46022;-81
2022/02/07 14:16:33;;;;;;;12.20;5.47;;;;;;;;;;143734;597;46010;-82
2022/02/07 14:19:00;;;;;;;12.13;4.87;;;;;;;;;;143734;594;46020;-80
2022/02/07 14:21:36;;;;;;;10.48;4.12;;;;;;;;;;143739;576;45042;-83
2022/02/07 14:24:14;;;;;;;9.63;3.97;;;;;;;;;;143737;661;45022;-81
2022/02/07 14:27:06;;;;;;;8.02;4.45;;;;;;;;;;143733;589;46010;-81
2022/02/07 14:29:34;;;;;;;12.27;4.68;;;;;;;;;;143733;583;46012;-81
2022/02/07 14:32:01;;;;;;;9.18;4.95;;;;;;;;;;143738;566;45020;-81
2022/02/07 14:34:39;;;;;;;9.32;4.97;;;;;;;;;;143732;572;47022;-81
2022/02/07 14:37:10;;;;;;;9.45;4.65;;;;;;;;;;143730;627;46010;-80
2022/02/07 14:39:40;;;;;;;7.72;4.70;;;;;;;;;;143733;573;47020;-82
2022/02/07 14:42:08;;;;;;;7.97;4.22;;;;;;;;;;143735;590;46020;-81
2022/02/07 14:44:46;;;;;;;10.13;3.90;;;;;;;;;;143730;607;47023;-82
2022/02/07 14:47:26;;;;;;;9.63;5.62;;;;;;;;;;143731;620;46010;-81
2022/02/07 14:49:56;;;;;;;8.07;4.35;;;;;;;;;;143732;593;46020;-81
2022/02/07 14:52:25;;;;;;;5.90;3.45;;;;;;;;;;143734;619;46010;-81
2022/02/07 14:54:53;;;;;;;12.77;5.32;;;;;;;;;;143731;585;46020;-81
2022/02/07 14:57:29;;;;;;;8.27;4.50;;;;;;;;;;143731;618;47010;-81
2022/02/07 14:59:58;;;;;;;14.05;5.10;;;;;;;;;;143732;577;46021;-81
2022/02/07 15:02:26;;;;;;;8.60;5.12;;;;;;;;;;143735;564;46010;-81
2022/02/07 15:04:54;;;;;;;20.73;7.53;;;;;;;;;;143735;593;45022;-80
2022/02/07 15:07:22;;;;;;;10.57;6.05;;;;;;;;;;143733;585;46010;-81
2022/02/07 15:09:49;;;;;;;15.38;5.87;;;;;;;;;;143734;565;46036;-80
2022/02/07 15:12:16;;;;;;;11.80;6.28;;;;;;;;;;143735;602;46010;-80
2022/02/07 15:14:49;;;;;;;22.05;10.20;;;;;;;;;;143729;594;47023;-83
2022/02/07 15:17:29;;;;;;;20.62;8.98;;;;;;;;;;143733;579;46010;-80
2022/02/07 15:20:00;;;;;;;10.35;6.65;;;;;;;;;;143734;582;46020;-81
2022/02/07 15:22:27;;;;;;;23.33;15.88;;;;;;;;;;143734;562;46018;-81
2022/02/07 15:24:58;;;;;;;17.33;7.95;;;;;;;;;;143731;579;46022;-80
2022/02/07 15:27:26;;;;;;;11.15;5.03;;;;;;;;;;143733;564;46010;-81
2022/02/07 15:29:59;;;;;;;13.30;7.97;;;;;;;;;;143732;579;46012;-81
2022/02/07 15:32:38;;;;;;;18.37;10.43;;;;;;;;;;143734;572;46020;-81
2022/02/07 15:35:07;;;;;;;21.12;13.52;;;;;;;;;;143732;673;47022;-80
2022/02/07 15:37:36;;;;;;;21.52;12.65;;;;;;;;;;143732;593;46010;-81
2022/02/07 15:40:05;;;;;;;15.27;7.45;;;;;;;;;;143734;582;46012;-81
2022/02/07 15:43:05;;;;;;;;;;;;;;;;;;;;;
2022/02/07 15:45:35;;;;;;;13.48;6.32;;;;;;;;;;143733;570;46025;-82
2022/02/07 15:48:02;;;;;;;14.20;5.35;;;;;;;;;;143734;608;46030;-83
2022/02/07 15:50:30;;;;;;;12.70;5.70;;;;;;;;;;143733;590;46021;-81
2022/02/07 15:53:01;;;;;;;13.82;5.30;;;;;;;;;;143735;601;46010;-81
2022/02/07 15:55:29;;;;;;;11.98;4.87;;;;;;;;;;143734;602;46012;-81
2022/02/07 15:57:56;;;;;;;9.65;4.05;;;;;;;;;;143732;574;46915;-80
2022/02/07 16:00:23;;;;;;;14.15;4.90;;;;;;;;;;143733;648;46020;-81
2022/02/07 16:02:50;;;;;;;8.13;4.85;;;;;;;;;;143735;575;46010;-81
2022/02/07 16:05:22;;;;;;;12.82;5.35;;;;;;;;;;143734;582;46046;-82
2022/02/07 16:07:50;;;;;;;7.65;4.35;;;;;;;;;;143731;585;47012;-81
2022/02/07 16:10:17;;;;;;;22.87;4.82;;;;;;;;;;143734;614;46020;-81
2022/02/07 16:12:46;;;;;;;7.75;3.60;;;;;;;;;;143735;597;46010;-81
2022/02/07 16:15:17;;;;;;;14.68;3.97;;;;;;;;;;143731;574;47023;-80
2022/02/07 16:17:46;;;;;;;6.65;4.22;;;;;;;;;;143732;607;46010;-80
2022/02/07 16:20:14;;;;;;;11.10;4.68;;;;;;;;;;143731;670;47013;-81
2022/02/07 16:22:43;;;;;;;15.68;4.87;;;;;;;;;;143736;571;46010;-80
2022/02/07 16:25:09;;;;;;;12.90;6.53;;;;;;;;;;143731;594;47022;-81
2022/02/07 16:27:36;;;;;;;13.95;6.05;;;;;;;;;;143732;582;46010;-81
2022/02/07 16:30:04;;;;;;;9.25;5.60;;;;;;;;;;143734;580;46020;-82
2022/02/07 16:32:31;;;;;;;18.73;10.90;;;;;;;;;;143734;673;46027;-82
2022/02/07 16:34:59;;;;;;;17.10;8.57;;;;;;;;;;143732;599;46022;-80
2022/02/07 16:37:26;;;;;;;14.43;4.55;;;;;;;;;;143732;619;46010;-81
2022/02/07 16:39:53;;;;;;;16.27;5.03;;;;;;;;;;143733;691;46020;-81
2022/02/07 16:42:22;;;;;;;10.73;6.62;;;;;;;;;;143734;606;46045;-81
2022/02/07 16:45:04;;;;;;;14.02;6.68;;;;;;;;;;143733;621;46027;-80
2022/02/07 16:47:30;;;;;;;14.18;7.40;;;;;;;;;;143732;585;46020;-80
2022/02/07 16:49:58;;;;;;;13.62;7.70;;;;;;;;;;143734;575;46021;-80
2022/02/07 16:52:25;;;;;;;13.62;8.18;;;;;;;;;;143737;585;46020;-80
2022/02/07 16:54:59;;;;;;;14.07;8.98;;;;;;;;;;143734;571;46022;-81